Time;durP1;ratioP1;P1;durP2;ratioP2;P2;SDS_P1;SDS_P2;PMS_P1;PMS_P2;Temp;Humidity;BMP_temperature;BMP_pressure;BME280_temperature;BME280_humidity;BME280_pressure;Samples;Min_cycle;Max_cycle;Signal;HPM_P1;HPM_P2
2024/01/21 00:00:50;;;;;;;85.97;15.57;;;26.80;27.70;;;;;;5070471;28;20209;-79
2024/01/21 00:03:16;;;;;;;53.67;12.77;;;26.80;27.70;;;;;;5074510;28;20278;-78
2024/01/21 00:05:45;;;;;;;54.07;12.50;;;26.80;27.70;;;;;;5079112;28;20286;-78
2024/01/21 00:08:12;;;;;;;50.63;13.67;;;26.80;27.60;;;;;;5068134;28;20249;-78
2024/01/21 00:10:39;;;;;;;50.53;12.03;;;26.80;27.60;;;;;;5082957;28;20205;-79
2024/01/21 00:13:06;;;;;;;48.70;12.17;;;26.80;27.60;;;;;;5088298;28;20241;-79
2024/01/21 00:15:33;;;;;;;69.23;13.40;;;26.80;27.60;;;;;;5087902;28;20290;-80
2024/01/21 00:17:59;;;;;;;51.13;13.07;;;26.80;27.60;;;;;;5076110;28;20202;-78
2024/01/21 00:20:30;;;;;;;47.33;17.53;;;26.80;27.60;;;;;;5073612;28;20203;-78
2024/01/21 00:22:58;;;;;;;74.83;17.70;;;26.80;27.50;;;;;;5085239;28;20260;-80
2024/01/21 00:25:25;;;;;;;51.30;17.17;;;26.80;27.50;;;;;;5077228;28;20588;-77
2024/01/21 00:27:52;;;;;;;52.97;16.20;;;26.80;27.60;;;;;;5068059;28;20279;-79
2024/01/21 00:30:19;;;;;;;50.07;16.13;;;26.80;27.50;;;;;;5077153;28;20207;-79
2024/01/21 00:32:46;;;;;;;51.37;18.17;;;26.80;27.60;;;;;;5085041;28;20274;-78
2024/01/21 00:35:13;;;;;;;72.73;17.60;;;26.80;27.60;;;;;;5086864;28;20207;-76
2024/01/21 00:37:40;;;;;;;43.47;17.00;;;26.80;27.60;;;;;;5088653;28;20191;-76
2024/01/21 00:40:09;;;;;;;58.03;16.90;;;26.80;27.60;;;;;;5083645;28;20619;-78
2024/01/21 00:42:36;;;;;;;58.27;18.13;;;26.80;27.60;;;;;;5081876;28;20202;-78
2024/01/21 00:45:04;;;;;;;56.20;17.83;;;26.80;27.60;;;;;;5087573;28;20202;-76
2024/01/21 00:47:31;;;;;;;48.63;15.40;;;26.80;27.60;;;;;;5082527;28;20282;-77
2024/01/21 00:49:59;;;;;;;90.57;24.33;;;26.80;27.60;;;;;;5071140;28;20282;-81
2024/01/21 00:52:26;;;;;;;53.53;12.33;;;26.80;27.60;;;;;;5074626;28;20229;-78
2024/01/21 00:54:53;;;;;;;50.97;12.97;;;26.80;27.60;;;;;;5074847;28;20235;-77
2024/01/21 00:57:22;;;;;;;52.40;13.60;;;26.80;27.60;;;;;;5086951;28;20191;-77
2024/01/21 00:59:49;;;;;;;52.63;12.73;;;26.80;27.60;;;;;;5080055;28;20215;-77
2024/01/21 01:02:16;;;;;;;52.73;12.37;;;26.80;27.60;;;;;;5086590;28;20211;-78
2024/01/21 01:04:43;;;;;;;61.10;13.33;;;26.80;27.60;;;;;;5075460;28;20195;-78
2024/01/21 01:07:10;;;;;;;47.07;12.80;;;26.80;27.60;;;;;;5078382;28;20306;-78
2024/01/21 01:09:37;;;;;;;56.73;14.50;;;26.80;27.50;;;;;;5084552;28;20611;-79
2024/01/21 01:12:05;;;;;;;82.00;15.03;;;26.80;27.50;;;;;;5079539;28;20238;-78
2024/01/21 01:14:33;;;;;;;60.23;12.43;;;26.90;27.60;;;;;;5079970;28;20198;-78
2024/01/21 01:17:00;;;;;;;55.97;12.83;;;26.90;27.50;;;;;;5086028;28;20206;-78
2024/01/21 01:19:27;;;;;;;59.37;13.63;;;26.90;27.50;;;;;;5066657;28;20246;-78
2024/01/21 01:21:54;;;;;;;52.13;12.87;;;26.90;27.50;;;;;;5068349;28;20226;-78
2024/01/21 01:24:21;;;;;;;51.60;13.17;;;26.90;27.50;;;;;;5073218;28;20685;-78
2024/01/21 01:26:48;;;;;;;67.77;13.40;;;26.90;27.50;;;;;;5068118;28;20287;-78
2024/01/21 01:29:15;;;;;;;79.60;15.47;;;26.90;27.50;;;;;;5078572;28;20207;-78
2024/01/21 01:31:43;;;;;;;45.47;12.90;;;26.90;27.50;;;;;;5083244;28;20301;-78
2024/01/21 01:34:12;;;;;;;50.67;12.07;;;26.90;27.50;;;;;;5085281;28;20226;-78
2024/01/21 01:36:39;;;;;;;57.20;12.47;;;26.90;27.50;;;;;;5079197;28;20222;-78
2024/01/21 01:39:07;;;;;;;47.13;11.80;;;26.90;27.50;;;;;;5074369;28;20562;-78
2024/01/21 01:41:34;;;;;;;62.60;16.70;;;26.90;27.50;;;;;;5067325;28;20665;-79
2024/01/21 01:44:02;;;;;;;45.07;12.80;;;26.90;27.50;;;;;;5084515;28;20321;-78
2024/01/21 01:46:29;;;;;;;49.77;12.13;;;26.80;27.40;;;;;;5073871;28;20203;-78
2024/01/21 01:48:58;;;;;;;49.10;11.50;;;26.90;27.50;;;;;;5085997;28;20206;-77
2024/01/21 01:51:25;;;;;;;58.60;12.33;;;26.80;27.40;;;;;;5079506;28;20199;-77
2024/01/21 01:53:52;;;;;;;53.20;13.83;;;26.80;27.40;;;;;;5070544;28;20290;-78
2024/01/21 01:56:19;;;;;;;61.97;13.50;;;26.80;27.40;;;;;;5070559;28;20652;-78
2024/01/21 01:58:48;;;;;;;42.90;11.17;;;26.80;27.40;;;;;;5073044;28;20646;-77
2024/01/21 02:01:16;;;;;;;52.00;13.77;;;26.80;27.40;;;;;;5073914;28;20507;-77
2024/01/21 02:03:43;;;;;;;45.27;11.23;;;26.90;28.00;;;;;;5088836;28;20194;-78
2024/01/21 02:06:11;;;;;;;49.17;12.70;;;26.80;27.40;;;;;;5090783;28;20190;-75
2024/01/21 02:08:38;;;;;;;48.50;12.13;;;26.90;27.90;;;;;;5081265;28;20298;-75
2024/01/21 02:11:05;;;;;;;44.73;11.03;;;26.80;27.40;;;;;;5070562;28;20191;-76
2024/01/21 02:13:32;;;;;;;41.20;11.73;;;26.80;27.40;;;;;;5070276;28;20326;-76
2024/01/21 02:16:00;;;;;;;48.27;12.20;;;26.80;27.40;;;;;;5070563;28;20234;-77
2024/01/21 02:18:27;;;;;;;47.13;12.77;;;26.80;27.40;;;;;;5070251;28;20294;-77
2024/01/21 02:20:54;;;;;;;54.63;12.50;;;26.80;27.40;;;;;;5070252;28;20261;-76
2024/01/21 02:23:22;;;;;;;51.43;11.80;;;26.80;27.40;;;;;;5071323;28;20286;-77
2024/01/21 02:25:49;;;;;;;45.30;12.93;;;26.80;27.40;;;;;;5079567;28;20298;-77
2024/01/21 02:28:16;;;;;;;57.47;12.23;;;26.90;27.50;;;;;;5070288;28;20195;-76
2024/01/21 02:30:43;;;;;;;44.33;11.87;;;26.80;27.40;;;;;;5069835;28;20217;-76
2024/01/21 02:33:10;;;;;;;53.07;12.83;;;26.80;27.40;;;;;;5070024;28;20322;-78
2024/01/21 02:35:37;;;;;;;59.10;11.80;;;26.80;27.40;;;;;;5069919;28;20198;-77
2024/01/21 02:38:04;;;;;;;45.83;12.43;;;26.80;27.40;;;;;;5074384;28;20661;-77
2024/01/21 02:40:33;;;;;;;49.83;13.17;;;26.80;27.40;;;;;;5080366;28;20195;-77
2024/01/21 02:43:00;;;;;;;55.53;12.80;;;26.80;27.40;;;;;;5070579;28;20203;-76
2024/01/21 02:45:27;;;;;;;59.53;13.70;;;26.80;27.40;;;;;;5072473;28;20213;-77
2024/01/21 02:47:54;;;;;;;60.53;12.73;;;26.80;27.40;;;;;;5077262;28;20287;-77
2024/01/21 02:50:21;;;;;;;41.37;11.67;;;26.80;27.40;;;;;;5079009;28;20295;-77
2024/01/21 02:52:48;;;;;;;48.83;12.67;;;26.80;27.40;;;;;;5081003;28;20297;-76
2024/01/21 02:55:15;;;;;;;51.17;12.80;;;26.80;27.40;;;;;;5079815;28;20269;-77
2024/01/21 02:57:43;;;;;;;55.30;13.40;;;26.80;27.40;;;;;;5069384;28;20214;-77
2024/01/21 03:00:11;;;;;;;48.67;13.27;;;26.80;27.40;;;;;;5071132;28;20213;-77
2024/01/21 03:02:38;;;;;;;59.77;12.90;;;26.80;27.30;;;;;;5068610;28;20214;-77
2024/01/21 03:05:06;;;;;;;55.50;13.00;;;26.80;27.30;;;;;;5088106;28;20199;-80
2024/01/21 03:07:33;;;;;;;44.70;12.03;;;26.80;27.30;;;;;;5072497;28;20930;-79
2024/01/21 03:10:00;;;;;;;48.37;11.80;;;26.70;27.30;;;;;;5081930;28;20203;-76
2024/01/21 03:12:27;;;;;;;46.47;11.83;;;26.70;27.30;;;;;;5089395;28;20195;-77
2024/01/21 03:14:55;;;;;;;56.20;13.47;;;26.80;27.30;;;;;;5087925;28;20238;-77
2024/01/21 03:17:22;;;;;;;47.20;12.23;;;26.80;27.30;;;;;;5071848;28;20202;-77
2024/01/21 03:19:49;;;;;;;45.50;12.33;;;26.70;27.20;;;;;;5088672;28;20290;-77
2024/01/21 03:22:17;;;;;;;51.17;12.30;;;26.70;27.20;;;;;;5088942;28;20202;-76
2024/01/21 03:24:44;;;;;;;69.80;12.40;;;26.70;27.30;;;;;;5083723;28;20272;-76
2024/01/21 03:27:11;;;;;;;34.97;11.97;;;26.80;27.30;;;;;;5087330;28;20295;-79
2024/01/21 03:29:38;;;;;;;57.60;13.23;;;26.70;27.30;;;;;;5087173;28;20380;-75
2024/01/21 03:32:07;;;;;;;45.50;13.10;;;26.70;27.70;;;;;;5084179;28;20915;-79
2024/01/21 03:34:37;;;;;;;54.83;13.17;;;26.70;27.30;;;;;;5082383;28;20235;-76
2024/01/21 03:37:04;;;;;;;106.50;15.33;;;26.70;27.20;;;;;;5085373;28;20202;-75
2024/01/21 03:39:31;;;;;;;50.20;12.57;;;26.70;27.20;;;;;;5085634;28;20306;-77
2024/01/21 03:41:58;;;;;;;50.13;12.40;;;26.70;27.30;;;;;;5088294;28;20252;-79
2024/01/21 03:44:25;;;;;;;65.73;13.37;;;26.70;27.20;;;;;;5088824;28;20213;-78
2024/01/21 03:46:52;;;;;;;58.80;12.57;;;26.70;27.30;;;;;;5085416;28;20234;-78
2024/01/21 03:49:20;;;;;;;44.33;11.57;;;26.70;27.30;;;;;;5082485;28;20643;-78
2024/01/21 03:51:47;;;;;;;79.43;15.57;;;26.70;27.20;;;;;;5083897;28;20313;-76
2024/01/21 03:54:14;;;;;;;57.80;14.03;;;26.70;27.30;;;;;;5068616;28;20231;-76
2024/01/21 03:56:41;;;;;;;71.83;13.53;;;26.70;27.30;;;;;;5069092;28;20257;-75
2024/01/21 03:59:09;;;;;;;47.87;12.20;;;26.70;27.20;;;;;;5078493;28;20211;-76
2024/01/21 04:01:42;;;;;;;46.30;11.27;;;26.70;27.20;;;;;;5082304;28;20203;-75
2024/01/21 04:04:09;;;;;;;41.27;16.00;;;26.70;27.20;;;;;;5072378;28;20204;-76
2024/01/21 04:06:40;;;;;;;63.13;13.00;;;26.60;27.20;;;;;;5076896;28;20310;-80
2024/01/21 04:09:07;;;;;;;42.37;11.60;;;26.70;27.20;;;;;;5079079;28;20728;-75
2024/01/21 04:11:34;;;;;;;50.27;12.20;;;26.60;27.20;;;;;;5080537;28;20260;-78
2024/01/21 04:14:01;;;;;;;41.33;12.10;;;26.60;27.20;;;;;;5087419;28;20219;-77
2024/01/21 04:16:28;;;;;;;48.23;14.27;;;27.00;27.40;;;;;;5074448;28;20673;-75
2024/01/21 04:18:55;;;;;;;63.43;14.43;;;26.70;27.30;;;;;;5073266;28;20195;-77
2024/01/21 04:21:22;;;;;;;41.83;11.97;;;26.60;27.20;;;;;;5067614;28;20307;-76
2024/01/21 04:23:50;;;;;;;54.70;12.43;;;26.60;27.20;;;;;;5068381;28;20206;-78
2024/01/21 04:26:17;;;;;;;46.30;12.73;;;26.60;27.20;;;;;;5067866;28;20290;-78
2024/01/21 04:28:44;;;;;;;56.20;12.83;;;26.70;27.30;;;;;;5067771;28;20205;-76
2024/01/21 04:31:11;;;;;;;57.13;11.73;;;26.60;27.20;;;;;;5068650;28;20215;-75
2024/01/21 04:33:38;;;;;;;41.73;12.00;;;26.60;27.20;;;;;;5077452;28;20230;-79
2024/01/21 04:36:06;;;;;;;59.33;14.40;;;26.60;27.20;;;;;;5087466;28;20195;-76
2024/01/21 04:38:33;;;;;;;49.93;13.13;;;26.60;27.20;;;;;;5088047;28;20574;-77
2024/01/21 04:41:01;;;;;;;60.10;13.97;;;26.60;27.20;;;;;;5086989;28;20194;-75
2024/01/21 04:43:28;;;;;;;47.50;12.13;;;26.60;27.20;;;;;;5086670;28;20912;-79
2024/01/21 04:45:55;;;;;;;47.03;11.50;;;26.60;27.20;;;;;;5087909;28;20278;-75
2024/01/21 04:48:22;;;;;;;53.37;13.03;;;26.60;27.20;;;;;;5087414;28;20573;-75
2024/01/21 04:50:49;;;;;;;46.80;12.30;;;26.60;27.20;;;;;;5087111;28;20233;-79
2024/01/21 04:53:16;;;;;;;45.97;11.73;;;26.60;27.70;;;;;;5083175;28;20204;-76
2024/01/21 04:55:42;;;;;;;45.43;12.87;;;26.60;27.20;;;;;;5067864;28;20223;-78
2024/01/21 04:58:11;;;;;;;48.57;12.63;;;26.50;27.10;;;;;;5068192;28;20209;-75
2024/01/21 05:00:38;;;;;;;54.63;13.33;;;26.60;27.20;;;;;;5085137;28;20651;-77
2024/01/21 05:03:05;;;;;;;53.90;12.93;;;26.60;27.20;;;;;;5083615;28;20199;-76
2024/01/21 05:05:32;;;;;;;43.43;11.97;;;26.60;27.20;;;;;;5087086;28;20297;-75
2024/01/21 05:07:59;;;;;;;54.97;13.87;;;26.50;27.20;;;;;;5087096;28;20202;-76
2024/01/21 05:10:26;;;;;;;47.60;11.47;;;26.50;27.20;;;;;;5075396;28;20259;-76
2024/01/21 05:12:53;;;;;;;47.53;12.87;;;26.50;27.20;;;;;;5067264;28;20196;-75
2024/01/21 05:15:21;;;;;;;52.90;12.70;;;26.50;27.20;;;;;;5067731;28;20233;-75
2024/01/21 05:17:48;;;;;;;38.37;11.37;;;26.50;27.20;;;;;;5083688;28;20289;-75
2024/01/21 05:20:15;;;;;;;39.00;12.80;;;26.50;27.20;;;;;;5087311;28;20626;-74
2024/01/21 05:22:42;;;;;;;52.07;12.17;;;26.50;27.20;;;;;;5087533;28;20270;-76
2024/01/21 05:25:09;;;;;;;47.33;13.17;;;26.50;27.20;;;;;;5087278;28;20216;-75
2024/01/21 05:27:36;;;;;;;46.13;12.20;;;26.50;27.20;;;;;;5087145;28;20201;-74
2024/01/21 05:30:04;;;;;;;51.93;12.53;;;26.50;27.20;;;;;;5086610;28;20206;-76
2024/01/21 05:32:32;;;;;;;47.63;12.67;;;26.50;27.20;;;;;;5078656;28;20618;-75
2024/01/21 05:34:59;;;;;;;43.73;11.63;;;26.50;27.70;;;;;;5066664;28;20326;-75
2024/01/21 05:37:26;;;;;;;63.53;14.17;;;26.50;27.20;;;;;;5066804;28;20248;-76
2024/01/21 05:39:53;;;;;;;47.90;12.37;;;26.40;27.20;;;;;;5066868;28;20663;-79
2024/01/21 05:42:20;;;;;;;53.20;12.50;;;26.50;27.20;;;;;;5066897;28;20274;-77
2024/01/21 05:44:47;;;;;;;52.47;12.70;;;26.40;27.20;;;;;;5066554;28;20290;-80
2024/01/21 05:47:14;;;;;;;54.97;11.90;;;26.40;27.20;;;;;;5067014;28;20214;-77
2024/01/21 05:49:42;;;;;;;46.73;13.83;;;26.40;27.20;;;;;;5066781;28;20214;-77
2024/01/21 05:52:09;;;;;;;46.07;12.77;;;26.40;27.20;;;;;;5066596;28;20214;-77
2024/01/21 05:54:36;;;;;;;62.87;13.07;;;26.40;27.20;;;;;;5066170;28;20215;-75
2024/01/21 05:57:03;;;;;;;53.67;12.47;;;26.40;27.20;;;;;;5066670;28;20688;-75
2024/01/21 05:59:30;;;;;;;53.37;13.47;;;26.40;27.20;;;;;;5069848;28;20677;-78
2024/01/21 06:01:56;;;;;;;51.47;11.73;;;26.40;27.20;;;;;;5074732;28;20218;-78
2024/01/21 06:04:23;;;;;;;45.60;12.10;;;26.40;27.20;;;;;;5066298;28;20210;-78
2024/01/21 06:06:52;;;;;;;38.87;10.83;;;26.40;27.30;;;;;;5067477;28;20204;-77
2024/01/21 06:09:19;;;;;;;44.43;13.10;;;26.40;27.20;;;;;;5069024;28;20214;-77
2024/01/21 06:11:46;;;;;;;52.97;12.93;;;26.40;27.20;;;;;;5086509;28;20668;-76
2024/01/21 06:14:13;;;;;;;42.70;12.23;;;26.40;27.30;;;;;;5086402;28;20720;-79
2024/01/21 06:16:40;;;;;;;74.67;14.50;;;26.40;27.20;;;;;;5086502;28;20318;-74
2024/01/21 06:19:07;;;;;;;57.63;12.03;;;26.40;27.30;;;;;;5086687;28;20218;-76
2024/01/21 06:21:35;;;;;;;50.63;13.50;;;26.40;27.30;;;;;;5085649;28;20210;-77
2024/01/21 06:24:04;;;;;;;67.20;17.90;;;26.40;27.30;;;;;;5076776;28;20203;-74
2024/01/21 06:26:31;;;;;;;60.80;18.10;;;26.40;27.30;;;;;;5073627;28;20230;-73
2024/01/21 06:28:58;;;;;;;66.97;19.30;;;26.40;27.30;;;;;;5085780;28;20191;-73
2024/01/21 06:31:25;;;;;;;79.23;19.17;;;26.40;27.40;;;;;;5082872;28;20215;-75
2024/01/21 06:33:52;;;;;;;79.63;20.97;;;26.40;27.30;;;;;;5077760;28;20317;-73
2024/01/21 06:36:19;;;;;;;83.57;19.47;;;26.40;27.40;;;;;;5082131;28;20205;-72
2024/01/21 06:38:46;;;;;;;56.00;16.77;;;26.40;27.40;;;;;;5076341;28;20276;-74
2024/01/21 06:41:14;;;;;;;76.40;18.87;;;26.40;27.40;;;;;;5088921;28;20213;-73
2024/01/21 06:43:41;;;;;;;60.03;13.37;;;26.40;27.40;;;;;;5074580;28;20204;-77
2024/01/21 06:46:09;;;;;;;56.97;13.77;;;26.40;27.40;;;;;;5081659;28;20242;-80
2024/01/21 06:48:36;;;;;;;79.03;15.00;;;26.40;27.40;;;;;;5088665;28;20710;-79
2024/01/21 06:51:09;;;;;;;87.23;14.17;;;26.40;27.40;;;;;;5079736;28;20290;-79
2024/01/21 06:53:36;;;;;;;65.07;13.80;;;26.40;27.40;;;;;;5068540;28;20743;-77
2024/01/21 06:56:07;;;;;;;64.47;13.30;;;26.40;27.40;;;;;;5068272;28;20238;-81
2024/01/21 06:58:35;;;;;;;55.97;13.37;;;26.50;27.50;;;;;;5068833;28;20192;-80
2024/01/21 07:01:02;;;;;;;78.68;13.82;;;26.40;27.40;;;;;;5067080;28;20436;-83
2024/01/21 07:03:29;;;;;;;54.37;12.47;;;26.40;27.40;;;;;;5088144;28;20770;-84
2024/01/21 07:05:56;;;;;;;58.63;13.33;;;26.40;27.50;;;;;;5088611;28;20274;-83
2024/01/21 07:08:23;;;;;;;65.10;12.77;;;26.40;27.90;;;;;;5083060;28;20206;-80
2024/01/21 07:10:50;;;;;;;63.90;14.13;;;26.40;27.50;;;;;;5068327;28;20198;-84
2024/01/21 07:13:17;;;;;;;69.10;14.93;;;26.50;27.50;;;;;;5068341;28;20244;-85
2024/01/21 07:15:45;;;;;;;64.83;14.03;;;26.50;27.50;;;;;;5075531;28;20600;-84
2024/01/21 07:18:12;;;;;;;54.63;13.50;;;26.50;27.40;;;;;;5088800;28;20272;-75
2024/01/21 07:20:39;;;;;;;62.73;13.40;;;26.50;27.40;;;;;;5088072;28;20210;-75
2024/01/21 07:23:06;;;;;;;66.03;15.57;;;26.50;27.40;;;;;;5088522;28;20209;-79
2024/01/21 07:25:33;;;;;;;71.30;17.20;;;26.50;27.40;;;;;;5088519;28;20281;-74
2024/01/21 07:28:00;;;;;;;59.03;16.93;;;26.50;27.40;;;;;;5088539;28;20183;-83
2024/01/21 07:30:27;;;;;;;58.13;16.00;;;26.50;27.40;;;;;;5075047;28;20238;-83
2024/01/21 07:32:55;;;;;;;62.60;15.93;;;26.50;27.40;;;;;;5066809;28;20686;-79
2024/01/21 07:35:22;;;;;;;68.20;18.63;;;26.50;27.40;;;;;;5067002;28;20713;-79
2024/01/21 07:37:49;;;;;;;77.10;18.00;;;26.50;27.50;;;;;;5075598;28;20207;-77
2024/01/21 07:40:16;;;;;;;68.17;16.80;;;26.40;27.40;;;;;;5067937;28;20286;-81
2024/01/21 07:42:43;;;;;;;62.50;17.43;;;26.40;27.40;;;;;;5067736;28;20229;-77
2024/01/21 07:45:11;;;;;;;58.53;16.30;;;26.40;27.50;;;;;;5067017;28;20311;-76
2024/01/21 07:47:38;;;;;;;61.27;17.47;;;26.40;27.40;;;;;;5067529;28;20699;-79
2024/01/21 07:50:07;;;;;;;72.03;20.00;;;26.40;27.50;;;;;;5067063;28;20246;-77
2024/01/21 07:52:34;;;;;;;80.87;18.13;;;26.40;27.50;;;;;;5068309;28;20199;-77
2024/01/21 07:55:01;;;;;;;73.80;18.90;;;26.40;27.50;;;;;;5084391;28;20237;-78
2024/01/21 07:57:28;;;;;;;52.40;17.33;;;26.40;27.50;;;;;;5083896;28;20210;-77
2024/01/21 07:59:55;;;;;;;73.60;18.83;;;26.40;27.50;;;;;;5086315;28;20298;-76
2024/01/21 08:02:26;;;;;;;70.83;18.83;;;26.40;27.50;;;;;;5080546;28;20676;-77
2024/01/21 08:04:53;;;;;;;76.47;18.00;;;26.40;27.50;;;;;;5087254;28;20659;-77
2024/01/21 08:07:21;;;;;;;61.70;16.80;;;26.40;27.50;;;;;;5087523;28;20194;-78
2024/01/21 08:09:48;;;;;;;53.77;16.57;;;26.30;27.50;;;;;;5079150;28;20202;-78
2024/01/21 08:12:15;;;;;;;72.13;18.10;;;26.30;27.50;;;;;;5066833;28;20250;-77
2024/01/21 08:14:42;;;;;;;64.40;18.03;;;26.30;27.50;;;;;;5066818;28;20219;-82
2024/01/21 08:17:09;;;;;;;61.53;18.13;;;26.30;27.50;;;;;;5066642;28;20311;-80
2024/01/21 08:19:38;;;;;;;62.87;18.20;;;26.30;27.50;;;;;;5070550;28;20286;-82
2024/01/21 08:22:05;;;;;;;58.67;16.73;;;26.30;27.50;;;;;;5076470;28;20594;-79
2024/01/21 08:24:33;;;;;;;59.83;17.43;;;26.30;27.50;;;;;;5077759;28;20201;-79
2024/01/21 08:27:00;;;;;;;67.17;18.87;;;26.30;27.50;;;;;;5066079;28;20690;-82
2024/01/21 08:29:28;;;;;;;56.87;17.00;;;26.30;27.50;;;;;;5069226;28;20285;-80
2024/01/21 08:31:56;;;;;;;61.30;18.53;;;26.30;27.60;;;;;;5087021;28;20237;-82
2024/01/21 08:34:23;;;;;;;59.17;16.40;;;26.30;27.60;;;;;;5086882;28;20209;-82
2024/01/21 08:36:50;;;;;;;56.73;18.00;;;26.30;28.00;;;;;;5071447;28;20310;-79
2024/01/21 08:39:16;;;;;;;62.67;18.27;;;26.30;28.10;;;;;;5066715;28;20207;-84
2024/01/21 08:41:45;;;;;;;86.17;19.47;;;26.30;27.60;;;;;;5066349;28;20290;-83
2024/01/21 08:44:12;;;;;;;66.30;17.50;;;26.30;27.60;;;;;;5066331;28;21007;-81
2024/01/21 08:46:39;;;;;;;61.67;18.00;;;26.20;27.50;;;;;;5068172;28;20235;-85
2024/01/21 08:49:05;;;;;;;57.30;19.57;;;26.20;27.50;;;;;;5069668;28;20286;-82
2024/01/21 08:51:31;;;;;;;63.93;17.67;;;26.20;27.60;;;;;;5066456;28;20196;-83
2024/01/21 08:53:59;;;;;;;58.03;17.50;;;26.20;27.60;;;;;;5066917;28;20298;-84
2024/01/21 08:56:27;;;;;;;62.63;18.20;;;26.20;27.60;;;;;;5067170;28;20242;-81
2024/01/21 08:58:55;;;;;;;60.83;16.37;;;26.20;27.60;;;;;;5066148;28;20211;-82
2024/01/21 09:01:22;;;;;;;73.37;18.83;;;26.20;27.60;;;;;;5073588;28;20202;-83
2024/01/21 09:03:49;;;;;;;58.43;18.83;;;26.20;27.60;;;;;;5082854;28;20199;-85
2024/01/21 09:06:16;;;;;;;86.07;19.13;;;26.20;27.60;;;;;;5084073;28;20271;-84
2024/01/21 09:08:43;;;;;;;76.07;19.60;;;26.20;27.70;;;;;;5065606;28;20203;-79
2024/01/21 09:11:10;;;;;;;71.57;18.73;;;26.00;27.60;;;;;;5064842;28;20195;-83
2024/01/21 09:13:37;;;;;;;63.50;17.70;;;26.10;27.60;;;;;;5066083;28;20282;-85
2024/01/21 09:16:07;;;;;;;54.23;16.77;;;26.20;27.70;;;;;;5065743;28;20226;-80
2024/01/21 09:18:34;;;;;;;58.57;17.20;;;26.20;27.70;;;;;;5083408;28;20201;-83
2024/01/21 09:21:02;;;;;;;63.07;19.17;;;26.10;27.70;;;;;;5079189;28;20200;-79
2024/01/21 09:23:29;;;;;;;68.63;18.23;;;26.20;27.70;;;;;;5065965;28;20199;-84
2024/01/21 09:25:56;;;;;;;58.57;18.10;;;26.20;27.70;;;;;;5065814;28;20207;-85
2024/01/21 09:28:23;;;;;;;57.43;18.90;;;26.20;27.70;;;;;;5076673;28;20199;-86
2024/01/21 09:30:50;;;;;;;73.83;19.10;;;26.20;27.80;;;;;;5078627;28;20238;-81
2024/01/21 09:33:19;;;;;;;64.83;18.73;;;26.20;27.80;;;;;;5079098;28;20198;-83
2024/01/21 09:35:46;;;;;;;83.77;19.27;;;26.20;27.80;;;;;;5065245;28;20239;-79
2024/01/21 09:38:16;;;;;;;66.87;18.30;;;26.20;27.80;;;;;;5065513;28;20227;-84
2024/01/21 09:40:43;;;;;;;73.90;17.90;;;26.20;27.80;;;;;;5065291;28;20203;-85
2024/01/21 09:43:11;;;;;;;58.77;16.83;;;26.20;27.80;;;;;;5065935;28;20192;-84
2024/01/21 09:45:41;;;;;;;59.87;18.67;;;26.20;27.80;;;;;;5065261;28;20709;-75
2024/01/21 09:48:08;;;;;;;48.73;18.27;;;26.20;27.90;;;;;;5065812;28;20891;-82
2024/01/21 09:50:39;;;;;;;81.17;18.13;;;26.20;27.90;;;;;;5071226;28;20226;-81
2024/01/21 09:53:06;;;;;;;58.13;18.00;;;26.20;27.90;;;;;;5086209;28;20203;-77
2024/01/21 09:55:33;;;;;;;64.87;17.60;;;26.30;27.90;;;;;;5085595;28;20230;-86
2024/01/21 09:58:03;;;;;;;63.87;19.37;;;26.30;27.90;;;;;;5066429;28;20290;-79
2024/01/21 10:00:31;;;;;;;77.77;19.40;;;26.30;27.90;;;;;;5065372;28;20214;-75
2024/01/21 10:02:57;;;;;;;60.40;17.43;;;26.30;27.90;;;;;;5065352;28;20235;-76
2024/01/21 10:05:24;;;;;;;57.13;16.73;;;26.30;27.90;;;;;;5065742;28;20206;-77
2024/01/21 10:07:53;;;;;;;76.90;17.90;;;26.30;27.90;;;;;;5064731;28;20715;-76
2024/01/21 10:10:20;;;;;;;56.33;16.07;;;26.30;27.90;;;;;;5064559;28;20195;-75
2024/01/21 10:12:47;;;;;;;75.53;18.27;;;26.30;27.90;;;;;;5066048;28;20199;-77
2024/01/21 10:15:15;;;;;;;64.27;18.03;;;26.30;27.90;;;;;;5068836;28;20263;-80
2024/01/21 10:17:43;;;;;;;66.50;19.10;;;26.40;28.00;;;;;;5069283;28;20203;-82
2024/01/21 10:20:12;;;;;;;58.63;16.90;;;26.40;28.00;;;;;;5068705;28;20562;-85
2024/01/21 10:22:40;;;;;;;65.90;18.17;;;26.40;28.00;;;;;;5069199;28;20283;-82
2024/01/21 10:25:13;;;;;;;62.87;18.13;;;26.30;28.00;;;;;;5068798;28;20214;-84
2024/01/21 10:27:41;;;;;;;64.13;18.83;;;25.90;27.80;;;;;;5069048;28;20500;-79
2024/01/21 10:30:09;;;;;;;67.57;17.60;;;26.30;28.00;;;;;;5068535;28;20214;-82
2024/01/21 10:32:36;;;;;;;60.30;17.47;;;26.30;28.00;;;;;;5080045;28;20230;-85
2024/01/21 10:35:06;;;;;;;60.73;17.17;;;26.30;28.00;;;;;;5068966;28;20279;-82
2024/01/21 10:37:38;;;;;;;93.83;19.43;;;26.30;28.00;;;;;;5070945;28;20218;-83
2024/01/21 10:40:09;;;;;;;62.00;20.17;;;26.30;28.10;;;;;;5072059;28;20204;-83
2024/01/21 10:42:37;;;;;;;64.40;17.33;;;26.40;28.10;;;;;;5087262;28;20234;-84
2024/01/21 10:45:06;;;;;;;70.17;18.97;;;26.30;28.10;;;;;;5074630;28;20203;-84
2024/01/21 10:47:34;;;;;;;55.03;17.73;;;26.30;28.10;;;;;;5089244;28;20678;-80
2024/01/21 10:50:03;;;;;;;69.23;18.37;;;26.40;28.10;;;;;;5088977;28;20272;-83
2024/01/21 10:52:30;;;;;;;54.17;17.00;;;26.40;28.20;;;;;;5088911;28;20674;-83
2024/01/21 10:55:00;;;;;;;86.57;18.30;;;26.30;28.20;;;;;;5087479;28;20338;-83
2024/01/21 10:57:27;;;;;;;66.67;17.93;;;26.40;28.20;;;;;;5089146;28;20191;-84
2024/01/21 10:59:55;;;;;;;69.77;17.87;;;26.30;28.20;;;;;;5086994;28;20195;-82
2024/01/21 11:02:22;;;;;;;72.53;17.27;;;26.30;28.20;;;;;;5073754;28;20291;-78
2024/01/21 11:04:49;;;;;;;65.53;17.83;;;26.30;28.20;;;;;;5087155;28;20694;-79
2024/01/21 11:07:18;;;;;;;51.60;17.60;;;26.30;28.20;;;;;;5088339;28;20635;-77
2024/01/21 11:09:46;;;;;;;72.13;18.33;;;26.40;28.30;;;;;;5087668;28;20294;-75
2024/01/21 11:12:14;;;;;;;84.47;32.00;;;26.30;28.30;;;;;;5075159;28;20196;-75
2024/01/21 11:14:42;;;;;;;116.33;21.07;;;26.30;28.20;;;;;;5067359;28;20212;-79
2024/01/21 11:17:12;;;;;;;54.50;16.60;;;26.30;28.30;;;;;;5068392;28;20943;-79
2024/01/21 11:19:43;;;;;;;74.93;18.20;;;26.40;28.30;;;;;;5071026;28;20214;-78
2024/01/21 11:22:11;;;;;;;60.77;15.80;;;26.30;28.30;;;;;;5083128;28;20205;-79
2024/01/21 11:24:38;;;;;;;69.27;18.80;;;26.40;28.30;;;;;;5067737;28;20199;-78
2024/01/21 11:27:07;;;;;;;47.93;16.03;;;26.40;28.30;;;;;;5067903;28;20199;-77
2024/01/21 11:29:34;;;;;;;60.77;18.23;;;26.30;28.30;;;;;;5067802;28;20203;-79
2024/01/21 11:32:03;;;;;;;71.77;19.93;;;26.40;28.30;;;;;;5069718;28;20241;-79
2024/01/21 11:34:36;;;;;;;51.60;17.50;;;26.40;28.30;;;;;;5074314;28;20210;-78
2024/01/21 11:37:04;;;;;;;66.03;25.63;;;26.40;28.40;;;;;;5067227;28;20231;-76
2024/01/21 11:39:31;;;;;;;61.83;16.80;;;26.40;28.50;;;;;;5067461;28;20192;-76
2024/01/21 11:41:58;;;;;;;83.20;20.20;;;26.40;29.10;;;;;;5068327;28;20673;-75
2024/01/21 11:44:26;;;;;;;71.33;18.50;;;26.40;29.40;;;;;;5067381;28;20823;-78
2024/01/21 11:46:54;;;;;;;95.27;20.13;;;26.40;29.10;;;;;;5067231;28;20449;-78
2024/01/21 11:49:22;;;;;;;72.43;18.93;;;26.40;29.10;;;;;;5068967;28;20212;-77
2024/01/21 11:51:51;;;;;;;90.13;20.90;;;26.40;29.10;;;;;;5067613;28;20200;-79
2024/01/21 11:54:19;;;;;;;80.53;21.13;;;26.40;29.20;;;;;;5066474;28;20204;-80
2024/01/21 11:56:46;;;;;;;73.20;17.53;;;26.40;29.30;;;;;;5067172;28;20966;-79
2024/01/21 11:59:14;;;;;;;84.13;22.20;;;26.40;29.30;;;;;;5072498;28;20208;-79
2024/01/21 12:01:41;;;;;;;74.77;20.27;;;26.40;29.70;;;;;;5067182;28;20286;-79
2024/01/21 12:04:10;;;;;;;79.90;21.63;;;26.40;29.30;;;;;;5066991;28;20849;-79
2024/01/21 12:06:39;;;;;;;64.37;18.87;;;26.40;29.30;;;;;;5067328;28;20242;-81
2024/01/21 12:09:08;;;;;;;88.77;28.40;;;26.50;29.30;;;;;;5067011;28;20345;-82
2024/01/21 12:11:37;;;;;;;76.20;18.90;;;26.50;29.30;;;;;;5067204;28;20204;-80
2024/01/21 12:14:06;;;;;;;67.70;18.30;;;26.50;29.30;;;;;;5069479;28;20225;-71
2024/01/21 12:16:33;;;;;;;68.17;18.10;;;26.50;29.30;;;;;;5073391;28;20226;-71
2024/01/21 12:19:00;;;;;;;70.53;17.63;;;26.50;29.20;;;;;;5075722;28;20184;-72
2024/01/21 12:21:28;;;;;;;72.30;18.03;;;26.50;29.30;;;;;;5074993;28;20324;-79
2024/01/21 12:23:57;;;;;;;75.40;19.23;;;26.50;29.30;;;;;;5068655;28;20297;-81
2024/01/21 12:26:25;;;;;;;59.93;18.63;;;26.40;29.20;;;;;;5071800;28;20196;-81